createdAt,value
2022-11-03T00:01:17.377Z,6.32
2022-11-03T00:03:45.296Z,7.60
2022-11-03T00:06:14.575Z,6.82
2022-11-03T00:08:43.221Z,6.57
2022-11-03T00:11:11.961Z,6.32
2022-11-03T00:13:41.417Z,7.85
2022-11-03T00:16:10.363Z,6.45
2022-11-03T00:18:38.285Z,6.80
2022-11-03T00:21:07.564Z,7.63
2022-11-03T00:23:37.997Z,5.75
2022-11-03T00:26:07.544Z,6.47
2022-11-03T00:28:35.582Z,7.65
2022-11-03T00:31:06.567Z,6.82
2022-11-03T00:33:34.549Z,8.05
2022-11-03T00:36:02.537Z,5.95
2022-11-03T00:38:30.508Z,7.93
2022-11-03T00:41:00.643Z,6.15
2022-11-03T00:43:29.535Z,5.57
2022-11-03T00:45:57.488Z,6.50
2022-11-03T00:48:31.367Z,5.78
2022-11-03T00:51:03.498Z,5.25
2022-11-03T00:53:31.708Z,7.05
2022-11-03T00:56:01.133Z,6.75
2022-11-03T00:58:29.051Z,4.75
2022-11-03T01:01:01.108Z,5.30
2022-11-03T01:03:29.112Z,5.35
2022-11-03T01:06:14.679Z,8.73
2022-11-03T01:08:42.633Z,5.18
2022-11-03T01:11:30.752Z,6.05
2022-11-03T01:13:58.683Z,6.28
2022-11-03T01:16:26.577Z,4.65
2022-11-03T01:18:54.613Z,6.57
2022-11-03T01:21:22.526Z,5.68
2022-11-03T01:23:50.519Z,5.53
2022-11-03T01:26:19.787Z,5.20
2022-11-03T01:28:48.354Z,5.00
2022-11-03T01:31:17.228Z,5.28
2022-11-03T01:33:45.644Z,6.07
2022-11-03T01:36:14.049Z,6.63
2022-11-03T01:38:42.024Z,7.05
2022-11-03T01:41:12.154Z,4.57
2022-11-03T01:43:41.495Z,5.03
2022-11-03T01:46:13.894Z,6.10
2022-11-03T01:48:43.456Z,8.02
2022-11-03T01:51:11.326Z,4.82
2022-11-03T01:53:41.424Z,6.07
2022-11-03T01:56:09.386Z,3.45
2022-11-03T01:58:38.207Z,4.72
2022-11-03T02:01:07.607Z,4.13
2022-11-03T02:03:37.829Z,5.30
2022-11-03T02:06:06.106Z,5.47
2022-11-03T02:08:36.795Z,4.57
2022-11-03T02:11:25.338Z,4.85
2022-11-03T02:13:53.355Z,4.75
2022-11-03T02:16:22.659Z,7.30
2022-11-03T02:18:50.559Z,5.32
2022-11-03T02:21:22.912Z,5.35
2022-11-03T02:23:53.953Z,3.70
2022-11-03T02:26:23.151Z,4.35
2022-11-03T02:31:21.646Z,3.42
2022-11-03T02:33:51.007Z,4.53
2022-11-03T02:36:21.918Z,5.70
2022-11-03T02:38:52.138Z,5.22
2022-11-03T02:41:19.998Z,5.43
2022-11-03T02:43:49.227Z,3.95
2022-11-03T02:46:17.407Z,3.50
2022-11-03T02:48:45.273Z,4.72
2022-11-03T02:51:13.155Z,5.45
2022-11-03T02:53:43.963Z,3.92
2022-11-03T02:56:13.421Z,3.88
2022-11-03T02:58:43.169Z,4.70
2022-11-03T03:01:15.863Z,4.88
2022-11-03T03:03:45.129Z,4.18
2022-11-03T03:06:14.782Z,4.63
2022-11-03T03:08:44.995Z,3.95
2022-11-03T03:11:13.115Z,4.03
2022-11-03T03:13:41.185Z,4.32
2022-11-03T03:16:11.782Z,3.58
2022-11-03T03:18:49.021Z,4.38
2022-11-03T03:21:18.589Z,4.03
2022-11-03T03:23:49.897Z,3.35
2022-11-03T03:26:21.423Z,4.45
2022-11-03T03:28:50.589Z,4.63
2022-11-03T03:31:19.063Z,4.78
2022-11-03T03:33:50.126Z,3.85
2022-11-03T03:36:19.548Z,4.50
2022-11-03T03:38:49.642Z,4.43
2022-11-03T03:41:22.012Z,3.28
2022-11-03T03:43:50.788Z,3.78
2022-11-03T03:46:18.913Z,5.35
2022-11-03T03:48:48.250Z,4.13
2022-11-03T03:51:17.907Z,4.38
2022-11-03T03:53:45.797Z,4.32
2022-11-03T03:56:13.748Z,4.10
2022-11-03T03:58:41.650Z,3.30
2022-11-03T04:01:12.312Z,3.08
2022-11-03T04:03:40.258Z,3.72
2022-11-03T04:06:09.589Z,3.00
2022-11-03T04:08:37.461Z,4.10
2022-11-03T04:11:22.961Z,3.30
2022-11-03T04:14:08.251Z,4.07
2022-11-03T04:16:53.930Z,3.88
2022-11-03T04:19:38.483Z,3.78
2022-11-03T04:22:17.641Z,4.07
2022-11-03T04:24:45.865Z,4.05
2022-11-03T04:27:29.609Z,3.42
2022-11-03T04:29:58.699Z,5.05
2022-11-03T04:32:27.016Z,3.60
2022-11-03T04:34:54.995Z,4.25
2022-11-03T04:37:24.219Z,4.75
2022-11-03T04:39:52.080Z,4.07
2022-11-03T04:42:20.561Z,3.53
2022-11-03T04:44:48.645Z,3.92
2022-11-03T04:47:17.658Z,3.83
2022-11-03T04:49:45.687Z,3.30
2022-11-03T04:52:16.242Z,3.63
2022-11-03T04:54:45.705Z,6.22
2022-11-03T04:57:14.522Z,4.13
2022-11-03T04:59:42.528Z,3.92
2022-11-03T05:02:12.376Z,3.80
2022-11-03T05:04:40.318Z,4.55
2022-11-03T05:07:14.716Z,5.03
2022-11-03T05:09:43.092Z,3.58
2022-11-03T05:12:12.404Z,3.30
2022-11-03T05:14:40.362Z,3.05
2022-11-03T05:17:12.446Z,3.00
2022-11-03T05:19:40.943Z,3.75
2022-11-03T05:22:13.379Z,3.78
2022-11-03T05:24:43.471Z,3.65
2022-11-03T05:27:14.923Z,3.05
2022-11-03T05:29:42.872Z,3.08
2022-11-03T05:32:12.355Z,3.65
2022-11-03T05:34:42.505Z,4.53
2022-11-03T05:37:26.088Z,3.67
2022-11-03T05:39:56.092Z,3.33
2022-11-03T05:42:31.797Z,4.28
2022-11-03T05:44:59.765Z,3.28
2022-11-03T05:47:29.283Z,3.58
2022-11-03T05:50:02.042Z,3.55
2022-11-03T05:52:29.893Z,4.88
2022-11-03T05:54:59.260Z,3.85
2022-11-03T05:57:29.483Z,3.88
2022-11-03T05:59:57.457Z,3.97
2022-11-03T06:02:39.247Z,3.72
2022-11-03T06:05:12.817Z,3.67
2022-11-03T06:07:40.667Z,6.32
2022-11-03T06:10:19.990Z,3.58
2022-11-03T06:12:49.275Z,4.88
2022-11-03T06:15:26.006Z,4.30
2022-11-03T06:17:53.960Z,3.95
2022-11-03T06:20:22.411Z,4.68
2022-11-03T06:22:50.561Z,7.18
2022-11-03T06:25:22.129Z,6.28
2022-11-03T06:27:51.430Z,3.08
2022-11-03T06:30:22.559Z,6.35
2022-11-03T06:32:50.459Z,9.32
2022-11-03T06:35:18.475Z,6.65
2022-11-03T06:37:46.999Z,6.22
2022-11-03T06:40:37.089Z,9.38
2022-11-03T06:43:28.789Z,15.60
2022-11-03T06:45:58.179Z,21.83
2022-11-03T06:48:27.567Z,18.48
2022-11-03T06:50:55.865Z,23.20
2022-11-03T06:53:26.177Z,26.92
2022-11-03T06:55:54.092Z,20.60
2022-11-03T06:58:30.094Z,24.30
2022-11-03T07:01:03.344Z,28.38
2022-11-03T07:03:33.498Z,28.35
2022-11-03T07:06:03.359Z,24.52
2022-11-03T07:08:31.985Z,30.70
2022-11-03T07:11:05.429Z,30.25
2022-11-03T07:13:34.703Z,28.00
2022-11-03T07:16:02.762Z,29.02
2022-11-03T07:18:32.397Z,35.53
2022-11-03T07:21:06.875Z,33.13
2022-11-03T07:23:34.741Z,34.15
2022-11-03T07:26:02.645Z,39.97
2022-11-03T07:28:34.633Z,33.17
2022-11-03T07:31:03.158Z,35.88
2022-11-03T07:33:31.582Z,29.42
2022-11-03T07:36:16.623Z,34.92
2022-11-03T07:38:45.884Z,27.35
2022-11-03T07:41:15.359Z,30.17
2022-11-03T07:43:48.287Z,25.88
2022-11-03T07:46:18.173Z,25.50
2022-11-03T07:48:47.589Z,27.55
2022-11-03T07:51:17.981Z,22.15
2022-11-03T07:53:47.192Z,24.85
2022-11-03T07:56:17.484Z,22.20
2022-11-03T07:58:46.853Z,23.63
2022-11-03T08:01:24.575Z,26.35
2022-11-03T08:03:52.777Z,15.80
2022-11-03T08:06:20.711Z,21.10
2022-11-03T08:08:48.935Z,28.60
2022-11-03T08:11:16.830Z,24.02
2022-11-03T08:13:46.125Z,19.73
2022-11-03T08:16:14.016Z,17.85
2022-11-03T08:18:41.938Z,20.35
2022-11-03T08:21:09.956Z,18.25
2022-11-03T08:23:38.676Z,18.25
2022-11-03T08:26:07.953Z,15.73
2022-11-03T08:28:35.939Z,17.77
2022-11-03T08:31:12.009Z,20.45
2022-11-03T08:33:40.875Z,17.55
2022-11-03T08:36:09.825Z,15.90
2022-11-03T08:38:37.826Z,15.07
2022-11-03T08:41:06.029Z,17.30
2022-11-03T08:43:33.950Z,15.32
2022-11-03T08:46:08.275Z,16.55
2022-11-03T08:48:45.115Z,13.00
2022-11-03T08:51:13.888Z,12.35
2022-11-03T08:53:43.069Z,14.88
2022-11-03T08:56:13.056Z,16.38
2022-11-03T08:58:43.410Z,13.00
2022-11-03T09:01:11.378Z,13.82
2022-11-03T09:03:39.589Z,13.27
2022-11-03T09:06:09.259Z,13.40
2022-11-03T09:11:25.084Z,12.68
2022-11-03T09:13:53.016Z,14.90
2022-11-03T09:16:20.941Z,14.55
2022-11-03T09:18:49.049Z,13.05
2022-11-03T09:21:18.370Z,12.02
2022-11-03T09:23:46.287Z,18.02
2022-11-03T09:26:14.228Z,28.30
2022-11-03T09:28:42.158Z,16.95
2022-11-03T09:31:10.141Z,15.88
2022-11-03T09:33:38.020Z,16.23
2022-11-03T09:36:06.427Z,25.45
2022-11-03T09:38:37.047Z,30.23
2022-11-03T09:41:13.474Z,30.10
2022-11-03T09:43:52.841Z,35.38
2022-11-03T09:46:20.787Z,55.70
2022-11-03T09:48:48.665Z,48.97
2022-11-03T09:51:19.006Z,46.45
2022-11-03T09:53:48.365Z,60.08
2022-11-03T09:56:17.316Z,45.35
2022-11-03T09:58:48.585Z,61.13
2022-11-03T10:01:19.452Z,57.13
2022-11-03T10:03:47.514Z,53.88
2022-11-03T10:06:17.034Z,42.80
2022-11-03T10:08:45.973Z,59.63
2022-11-03T10:11:15.702Z,37.00
2022-11-03T10:13:47.499Z,42.40
2022-11-03T10:16:16.770Z,39.00
2022-11-03T10:18:44.659Z,39.47
2022-11-03T10:21:15.792Z,46.25
2022-11-03T10:23:44.189Z,44.17
2022-11-03T10:26:13.905Z,38.63
2022-11-03T10:28:48.214Z,32.15
2022-11-03T10:31:20.535Z,32.63
2022-11-03T10:33:52.864Z,35.05
2022-11-03T10:36:25.393Z,32.10
2022-11-03T10:38:53.495Z,33.72
2022-11-03T10:41:22.089Z,27.23
2022-11-03T10:44:03.457Z,37.13
2022-11-03T10:49:20.670Z,31.10
2022-11-03T10:51:50.023Z,26.60
2022-11-03T10:54:19.058Z,27.02
2022-11-03T10:56:47.276Z,22.02
2022-11-03T10:59:18.971Z,26.23
2022-11-03T11:01:47.208Z,28.50
2022-11-03T11:04:16.462Z,30.75
2022-11-03T11:06:44.556Z,22.08
2022-11-03T11:09:14.000Z,22.40
2022-11-03T11:11:53.669Z,33.47
2022-11-03T11:14:36.987Z,21.48
2022-11-03T11:17:05.233Z,20.33
2022-11-03T11:19:58.081Z,22.38
2022-11-03T11:22:26.019Z,21.27
2022-11-03T11:25:00.611Z,18.40
2022-11-03T11:28:07.553Z,14.85
2022-11-03T11:31:27.643Z,17.10
2022-11-03T11:34:28.986Z,18.23
2022-11-03T11:37:30.216Z,20.58
2022-11-03T11:39:59.850Z,15.43
2022-11-03T11:42:28.042Z,16.08
2022-11-03T11:45:06.253Z,15.27
2022-11-03T11:47:51.612Z,17.85
2022-11-03T11:50:27.960Z,15.07
2022-11-03T11:53:00.750Z,16.23
2022-11-03T11:55:36.005Z,13.90
2022-11-03T11:58:04.594Z,14.90
2022-11-03T12:00:33.329Z,13.07
2022-11-03T12:03:01.893Z,16.88
2022-11-03T12:05:31.571Z,11.95
2022-11-03T12:07:59.582Z,14.30
2022-11-03T12:10:28.937Z,12.02
2022-11-03T12:12:58.720Z,12.18
2022-11-03T12:15:49.092Z,12.55
2022-11-03T12:18:38.871Z,12.10
2022-11-03T12:21:08.588Z,11.73
2022-11-03T12:23:41.224Z,12.20
2022-11-03T12:26:16.389Z,12.43
2022-11-03T12:28:45.658Z,8.95
2022-11-03T12:31:13.762Z,9.70
2022-11-03T12:33:41.728Z,10.05
2022-11-03T12:36:10.223Z,9.52
2022-11-03T12:38:38.150Z,12.13
2022-11-03T12:41:19.986Z,11.25
2022-11-03T12:43:49.799Z,10.27
2022-11-03T12:46:17.731Z,10.00
2022-11-03T12:48:45.622Z,9.52
2022-11-03T12:51:13.883Z,9.85
2022-11-03T12:53:42.061Z,10.65
2022-11-03T12:56:10.197Z,9.70
2022-11-03T12:58:38.361Z,8.55
2022-11-03T13:01:07.929Z,10.27
2022-11-03T13:03:36.042Z,8.30
2022-11-03T13:06:04.903Z,7.07
2022-11-03T13:08:33.000Z,9.40
2022-11-03T13:11:00.943Z,8.70
2022-11-03T13:13:29.078Z,7.88
2022-11-03T13:15:57.023Z,6.97
2022-11-03T13:18:26.303Z,7.97
2022-11-03T13:20:54.167Z,7.70
2022-11-03T13:23:23.022Z,5.72
2022-11-03T13:25:51.267Z,6.55
2022-11-03T13:28:19.266Z,6.30
2022-11-03T13:30:47.651Z,7.68
2022-11-03T13:33:15.563Z,6.72
2022-11-03T13:35:44.835Z,8.82
2022-11-03T13:38:12.832Z,7.70
2022-11-03T13:40:59.217Z,6.82
2022-11-03T13:43:29.649Z,7.45
2022-11-03T13:46:01.144Z,6.05
2022-11-03T13:51:18.964Z,6.80
2022-11-03T14:07:14.051Z,7.55
2022-11-03T14:09:42.101Z,7.00
2022-11-03T14:12:27.753Z,7.43
2022-11-03T14:14:55.775Z,6.47
2022-11-03T14:17:24.577Z,6.93
2022-11-03T14:19:55.559Z,7.97
2022-11-03T14:22:30.327Z,6.38
2022-11-03T14:24:58.235Z,6.25
2022-11-03T14:27:26.309Z,5.97
2022-11-03T14:29:54.328Z,5.53
2022-11-03T14:32:22.313Z,6.38
2022-11-03T14:34:50.245Z,4.75
2022-11-03T14:37:18.220Z,5.20
2022-11-03T14:39:47.453Z,7.38
2022-11-03T14:42:15.705Z,5.95
2022-11-03T14:44:44.566Z,6.15
2022-11-03T14:47:13.508Z,5.25
2022-11-03T14:49:41.553Z,9.73
2022-11-03T14:52:09.624Z,8.02
2022-11-03T14:54:37.583Z,6.18
2022-11-03T14:57:06.904Z,7.65
2022-11-03T14:59:35.182Z,5.20
2022-11-03T15:02:03.366Z,6.13
2022-11-03T15:04:33.543Z,11.02
2022-11-03T15:07:01.668Z,7.13
2022-11-03T15:09:29.575Z,8.00
2022-11-03T15:11:57.574Z,5.88
2022-11-03T15:14:27.073Z,7.88
2022-11-03T15:16:54.996Z,5.07
2022-11-03T15:19:23.264Z,7.18
2022-11-03T15:21:51.314Z,4.30
2022-11-03T15:27:07.259Z,5.45
2022-11-03T15:29:38.990Z,9.43
2022-11-03T15:32:07.259Z,7.45
2022-11-03T15:34:35.286Z,9.13
2022-11-03T15:37:03.203Z,8.63
2022-11-03T15:39:31.193Z,5.90
2022-11-03T15:42:00.334Z,4.68
2022-11-03T15:44:28.283Z,7.80
2022-11-03T15:46:57.650Z,5.68
2022-11-03T15:49:25.579Z,6.13
2022-11-03T15:51:53.480Z,8.95
2022-11-03T15:54:21.429Z,8.52
2022-11-03T15:56:50.294Z,7.45
2022-11-03T15:59:19.118Z,7.15
2022-11-03T16:01:47.150Z,6.25
2022-11-03T16:04:17.226Z,4.55
2022-11-03T16:09:33.121Z,5.38
2022-11-03T16:12:01.276Z,9.98
2022-11-03T16:14:31.367Z,6.20
2022-11-03T16:16:59.579Z,13.13
2022-11-03T16:19:28.892Z,4.80
2022-11-03T16:21:56.970Z,11.77
2022-11-03T16:24:29.684Z,11.13
2022-11-03T16:27:05.016Z,5.78
2022-11-03T16:29:35.292Z,4.80
2022-11-03T16:32:03.368Z,11.07
2022-11-03T16:34:32.687Z,7.45
2022-11-03T16:37:00.984Z,7.43
2022-11-03T16:39:30.103Z,10.38
2022-11-03T16:41:58.069Z,5.45
2022-11-03T16:44:26.043Z,10.52
2022-11-03T16:46:53.976Z,9.00
2022-11-03T16:49:23.137Z,7.80
2022-11-03T16:51:52.446Z,6.53
2022-11-03T16:54:20.342Z,6.53
2022-11-03T16:56:53.472Z,10.38
2022-11-03T16:59:26.316Z,8.25
2022-11-03T17:01:54.398Z,6.60
2022-11-03T17:04:22.338Z,6.38
2022-11-03T17:06:50.213Z,8.50
2022-11-03T17:09:20.222Z,8.85
2022-11-03T17:11:48.108Z,6.97
2022-11-03T17:14:15.982Z,7.97
2022-11-03T17:16:46.552Z,6.80
2022-11-03T17:19:14.577Z,7.47
2022-11-03T17:21:42.549Z,7.40
2022-11-03T17:24:11.266Z,8.15
2022-11-03T17:26:46.526Z,10.52
2022-11-03T17:29:16.467Z,7.70
2022-11-03T17:31:44.389Z,6.40
2022-11-03T17:34:12.980Z,7.57
2022-11-03T17:36:40.990Z,6.47
2022-11-03T17:39:09.425Z,9.27
2022-11-03T17:41:37.365Z,10.13
2022-11-03T17:44:10.508Z,9.90
2022-11-03T17:46:38.380Z,8.02
2022-11-03T17:49:06.315Z,8.98
2022-11-03T17:51:34.449Z,10.52
2022-11-03T17:54:03.891Z,9.15
2022-11-03T17:56:31.946Z,7.28
2022-11-03T17:58:59.933Z,12.23
2022-11-03T18:01:29.367Z,7.40
2022-11-03T18:03:57.369Z,9.90
2022-11-03T18:06:25.976Z,8.57
2022-11-03T18:08:53.990Z,8.00
2022-11-03T18:11:42.558Z,12.02
2022-11-03T18:14:10.444Z,9.45
2022-11-03T18:16:40.602Z,8.32
2022-11-03T18:19:10.956Z,10.38
2022-11-03T18:21:41.973Z,11.25
2022-11-03T18:24:12.286Z,10.43
2022-11-03T18:26:40.249Z,11.88
2022-11-03T18:29:08.976Z,11.07
2022-11-03T18:31:41.162Z,12.25
2022-11-03T18:34:13.378Z,10.25
2022-11-03T18:36:41.310Z,12.35
2022-11-03T18:39:12.370Z,12.23
2022-11-03T18:41:40.416Z,9.65
2022-11-03T18:44:13.395Z,13.77
2022-11-03T18:46:42.735Z,11.30
2022-11-03T18:49:10.912Z,13.10
2022-11-03T18:51:38.876Z,14.00
2022-11-03T18:54:06.896Z,16.23
2022-11-03T18:56:38.123Z,12.95
2022-11-03T18:59:06.291Z,13.75
2022-11-03T19:01:34.399Z,18.95
2022-11-03T19:04:03.953Z,18.17
2022-11-03T19:06:31.917Z,18.25
2022-11-03T19:09:00.424Z,17.58
2022-11-03T19:11:28.385Z,17.13
2022-11-03T19:13:56.313Z,19.40
2022-11-03T19:16:25.017Z,19.95
2022-11-03T19:18:53.394Z,17.60
2022-11-03T19:21:23.859Z,16.08
2022-11-03T19:23:58.021Z,18.42
2022-11-03T19:26:29.269Z,20.50
2022-11-03T19:28:58.300Z,18.40
2022-11-03T19:31:30.147Z,15.00
2022-11-03T19:33:58.140Z,19.85
2022-11-03T19:36:27.500Z,21.23
2022-11-03T19:38:55.584Z,22.55
2022-11-03T19:41:41.256Z,19.88
2022-11-03T19:44:10.638Z,17.15
2022-11-03T19:46:38.778Z,29.08
2022-11-03T19:49:06.914Z,17.98
2022-11-03T19:51:39.635Z,20.67
2022-11-03T19:54:10.022Z,16.27
2022-11-03T19:56:37.982Z,21.58
2022-11-03T19:59:06.666Z,17.90
2022-11-03T20:01:34.869Z,24.88
2022-11-03T20:04:02.971Z,17.00
2022-11-03T20:06:31.286Z,18.35
2022-11-03T20:09:00.999Z,19.40
2022-11-03T20:11:28.881Z,17.65
2022-11-03T20:13:56.728Z,16.42
2022-11-03T20:16:24.669Z,19.58
2022-11-03T20:18:53.256Z,17.65
2022-11-03T20:21:22.415Z,18.70
2022-11-03T20:23:50.348Z,17.05
2022-11-03T20:26:20.741Z,18.35
2022-11-03T20:28:48.739Z,17.75
2022-11-03T20:31:17.293Z,18.95
2022-11-03T20:33:45.215Z,18.40
2022-11-03T20:36:15.851Z,15.65
2022-11-03T20:38:43.944Z,19.92
2022-11-03T20:41:14.349Z,17.63
2022-11-03T20:43:44.363Z,19.25
2022-11-03T20:46:20.126Z,17.33
2022-11-03T20:48:48.036Z,22.50
2022-11-03T20:51:16.160Z,15.27
2022-11-03T20:53:44.513Z,19.92
2022-11-03T20:56:19.362Z,15.00
2022-11-03T20:58:49.333Z,18.60
2022-11-03T21:01:19.389Z,20.42
2022-11-03T21:04:02.830Z,19.67
2022-11-03T21:06:31.701Z,13.32
2022-11-03T21:08:59.786Z,16.45
2022-11-03T21:11:29.003Z,15.73
2022-11-03T21:14:00.049Z,18.33
2022-11-03T21:16:46.652Z,17.98
2022-11-03T21:19:37.247Z,13.63
2022-11-03T21:22:30.898Z,16.42
2022-11-03T21:25:00.509Z,15.23
2022-11-03T21:27:28.416Z,13.85
2022-11-03T21:30:00.048Z,14.98
2022-11-03T21:32:28.432Z,15.35
2022-11-03T21:34:56.352Z,14.35
2022-11-03T21:37:24.468Z,20.65
2022-11-03T21:39:52.543Z,16.48
2022-11-03T21:42:38.137Z,19.42
2022-11-03T21:45:08.356Z,18.00
2022-11-03T21:47:36.335Z,15.98
2022-11-03T21:50:03.288Z,22.15
2022-11-03T21:52:34.110Z,16.17
2022-11-03T21:55:02.434Z,16.90
2022-11-03T21:57:30.386Z,17.33
2022-11-03T21:59:59.146Z,15.55
2022-11-03T22:02:30.153Z,15.50
2022-11-03T22:04:58.649Z,14.75
2022-11-03T22:07:26.550Z,13.50
2022-11-03T22:09:54.474Z,15.75
2022-11-03T22:12:22.913Z,18.27
2022-11-03T22:15:08.452Z,15.90
2022-11-03T22:17:37.727Z,12.45
2022-11-03T22:20:24.178Z,14.30
2022-11-03T22:23:05.990Z,14.93
2022-11-03T22:25:51.669Z,16.98
2022-11-03T22:28:20.046Z,16.35
2022-11-03T22:31:05.689Z,17.40
2022-11-03T22:33:55.941Z,14.30
2022-11-03T22:36:25.835Z,13.10
2022-11-03T22:39:11.307Z,15.80
2022-11-03T22:42:11.579Z,15.73
2022-11-03T22:44:56.002Z,16.05
2022-11-03T22:47:24.306Z,17.85
2022-11-03T22:49:53.568Z,14.63
2022-11-03T22:52:21.566Z,16.17
2022-11-03T22:54:48.477Z,16.02
2022-11-03T22:57:16.598Z,15.85
2022-11-03T22:59:44.563Z,17.90
2022-11-03T23:02:12.510Z,13.18
2022-11-03T23:04:40.412Z,17.85
2022-11-03T23:07:09.681Z,21.67
2022-11-03T23:09:37.619Z,19.00
2022-11-03T23:12:05.995Z,18.23
2022-11-03T23:14:48.879Z,16.83
2022-11-03T23:17:16.738Z,15.93
2022-11-03T23:20:02.191Z,14.32
2022-11-03T23:22:31.426Z,18.02
2022-11-03T23:25:01.595Z,15.02
2022-11-03T23:27:29.498Z,14.50
2022-11-03T23:29:57.340Z,16.10
2022-11-03T23:32:25.262Z,13.18
2022-11-03T23:34:53.167Z,15.65
2022-11-03T23:37:21.090Z,13.77
2022-11-03T23:39:50.321Z,13.40
2022-11-03T23:42:18.239Z,14.10
2022-11-03T23:45:03.622Z,13.30
2022-11-03T23:47:49.078Z,12.82
2022-11-03T23:50:17.013Z,16.40
2022-11-03T23:52:44.893Z,16.65
2022-11-03T23:55:14.097Z,11.00
2022-11-03T23:57:59.739Z,12.30
